sensor_id;sensor_type;location;lat;lon;timestamp;P1;durP1;ratioP1;P2;durP2;ratioP2
76589;SDS011;65471;55.908;37.880;2023-01-29T00:02:22;22.67;;;12.55;;
76589;SDS011;65471;55.908;37.880;2023-01-29T00:04:49;27.25;;;12.50;;
76589;SDS011;65471;55.908;37.880;2023-01-29T00:07:15;20.15;;;11.15;;
76589;SDS011;65471;55.908;37.880;2023-01-29T00:09:42;13.38;;;9.93;;
76589;SDS011;65471;55.908;37.880;2023-01-29T00:12:09;19.98;;;11.60;;
76589;SDS011;65471;55.908;37.880;2023-01-29T00:14:35;15.55;;;9.85;;
76589;SDS011;65471;55.908;37.880;2023-01-29T00:17:02;18.33;;;10.18;;
76589;SDS011;65471;55.908;37.880;2023-01-29T00:19:29;21.05;;;11.15;;
76589;SDS011;65471;55.908;37.880;2023-01-29T00:21:56;16.10;;;9.82;;
76589;SDS011;65471;55.908;37.880;2023-01-29T00:24:23;18.17;;;10.82;;
76589;SDS011;65471;55.908;37.880;2023-01-29T00:26:50;11.55;;;9.30;;
76589;SDS011;65471;55.908;37.880;2023-01-29T00:29:17;15.85;;;10.02;;
76589;SDS011;65471;55.908;37.880;2023-01-29T00:31:44;16.02;;;10.30;;
76589;SDS011;65471;55.908;37.880;2023-01-29T00:34:11;10.55;;;8.73;;
76589;SDS011;65471;55.908;37.880;2023-01-29T00:36:38;14.50;;;9.07;;
76589;SDS011;65471;55.908;37.880;2023-01-29T00:39:07;12.10;;;8.88;;
76589;SDS011;65471;55.908;37.880;2023-01-29T00:41:36;11.73;;;9.48;;
76589;SDS011;65471;55.908;37.880;2023-01-29T00:44:22;18.85;;;9.82;;
76589;SDS011;65471;55.908;37.880;2023-01-29T00:47:07;13.48;;;9.55;;
76589;SDS011;65471;55.908;37.880;2023-01-29T00:49:53;12.63;;;9.90;;
76589;SDS011;65471;55.908;37.880;2023-01-29T00:52:19;15.23;;;10.82;;
76589;SDS011;65471;55.908;37.880;2023-01-29T00:54:53;13.88;;;10.98;;
76589;SDS011;65471;55.908;37.880;2023-01-29T00:57:22;22.13;;;9.88;;
76589;SDS011;65471;55.908;37.880;2023-01-29T00:59:50;16.63;;;11.30;;
76589;SDS011;65471;55.908;37.880;2023-01-29T01:02:17;20.60;;;10.57;;
76589;SDS011;65471;55.908;37.880;2023-01-29T01:05:03;20.83;;;11.98;;
76589;SDS011;65471;55.908;37.880;2023-01-29T01:07:35;20.17;;;12.00;;
76589;SDS011;65471;55.908;37.880;2023-01-29T01:10:02;22.50;;;11.68;;
76589;SDS011;65471;55.908;37.880;2023-01-29T01:12:48;9.77;;;8.68;;
76589;SDS011;65471;55.908;37.880;2023-01-29T01:15:25;17.33;;;10.93;;
76589;SDS011;65471;55.908;37.880;2023-01-29T01:17:59;21.83;;;11.98;;
76589;SDS011;65471;55.908;37.880;2023-01-29T01:20:27;14.73;;;11.43;;
76589;SDS011;65471;55.908;37.880;2023-01-29T01:22:56;15.27;;;11.85;;
76589;SDS011;65471;55.908;37.880;2023-01-29T01:25:23;19.42;;;11.15;;
76589;SDS011;65471;55.908;37.880;2023-01-29T01:27:55;13.38;;;11.18;;
76589;SDS011;65471;55.908;37.880;2023-01-29T01:30:23;16.00;;;10.70;;
76589;SDS011;65471;55.908;37.880;2023-01-29T01:32:51;16.02;;;9.95;;
76589;SDS011;65471;55.908;37.880;2023-01-29T01:35:17;6.80;;;6.13;;
76589;SDS011;65471;55.908;37.880;2023-01-29T01:40:20;11.85;;;9.00;;
76589;SDS011;65471;55.908;37.880;2023-01-29T01:42:51;20.98;;;8.63;;
76589;SDS011;65471;55.908;37.880;2023-01-29T01:45:27;12.75;;;8.82;;
76589;SDS011;65471;55.908;37.880;2023-01-29T01:53:07;7.43;;;6.13;;
76589;SDS011;65471;55.908;37.880;2023-01-29T01:55:37;6.43;;;5.82;;
76589;SDS011;65471;55.908;37.880;2023-01-29T01:58:09;6.35;;;5.75;;
76589;SDS011;65471;55.908;37.880;2023-01-29T02:00:41;4.82;;;4.28;;
76589;SDS011;65471;55.908;37.880;2023-01-29T02:03:08;7.40;;;4.93;;
76589;SDS011;65471;55.908;37.880;2023-01-29T02:05:55;5.47;;;4.95;;
76589;SDS011;65471;55.908;37.880;2023-01-29T02:08:48;9.02;;;5.05;;
76589;SDS011;65471;55.908;37.880;2023-01-29T02:11:40;5.43;;;4.97;;
76589;SDS011;65471;55.908;37.880;2023-01-29T02:14:09;4.78;;;3.90;;
76589;SDS011;65471;55.908;37.880;2023-01-29T02:16:41;4.40;;;4.10;;
76589;SDS011;65471;55.908;37.880;2023-01-29T02:19:10;5.88;;;4.60;;
76589;SDS011;65471;55.908;37.880;2023-01-29T02:22:01;5.25;;;4.28;;
76589;SDS011;65471;55.908;37.880;2023-01-29T02:24:42;4.32;;;4.03;;
76589;SDS011;65471;55.908;37.880;2023-01-29T02:27:26;5.85;;;4.40;;
76589;SDS011;65471;55.908;37.880;2023-01-29T02:30:08;7.70;;;3.50;;
76589;SDS011;65471;55.908;37.880;2023-01-29T02:32:50;5.45;;;3.90;;
76589;SDS011;65471;55.908;37.880;2023-01-29T02:35:30;7.28;;;3.53;;
76589;SDS011;65471;55.908;37.880;2023-01-29T02:38:18;3.05;;;2.95;;
76589;SDS011;65471;55.908;37.880;2023-01-29T02:43:57;2.85;;;2.65;;
76589;SDS011;65471;55.908;37.880;2023-01-29T02:46:36;2.97;;;2.78;;
76589;SDS011;65471;55.908;37.880;2023-01-29T02:49:12;2.30;;;2.20;;
76589;SDS011;65471;55.908;37.880;2023-01-29T02:54:57;2.75;;;2.55;;
76589;SDS011;65471;55.908;37.880;2023-01-29T02:57:33;3.35;;;2.85;;
76589;SDS011;65471;55.908;37.880;2023-01-29T03:00:12;7.30;;;3.20;;
76589;SDS011;65471;55.908;37.880;2023-01-29T03:03:00;2.75;;;2.65;;
76589;SDS011;65471;55.908;37.880;2023-01-29T03:06:01;3.58;;;3.38;;
76589;SDS011;65471;55.908;37.880;2023-01-29T03:08:34;4.30;;;3.90;;
76589;SDS011;65471;55.908;37.880;2023-01-29T03:11:11;4.45;;;4.05;;
76589;SDS011;65471;55.908;37.880;2023-01-29T03:13:53;5.40;;;4.88;;
76589;SDS011;65471;55.908;37.880;2023-01-29T03:16:26;6.95;;;5.13;;
76589;SDS011;65471;55.908;37.880;2023-01-29T03:21:51;7.57;;;5.60;;
76589;SDS011;65471;55.908;37.880;2023-01-29T03:24:29;6.05;;;5.45;;
76589;SDS011;65471;55.908;37.880;2023-01-29T03:27:28;5.68;;;5.18;;
76589;SDS011;65471;55.908;37.880;2023-01-29T03:30:18;9.60;;;6.03;;
76589;SDS011;65471;55.908;37.880;2023-01-29T03:33:05;9.38;;;6.00;;
76589;SDS011;65471;55.908;37.880;2023-01-29T03:35:40;7.70;;;6.50;;
76589;SDS011;65471;55.908;37.880;2023-01-29T03:38:14;7.55;;;6.82;;
76589;SDS011;65471;55.908;37.880;2023-01-29T03:40:45;6.72;;;6.05;;
76589;SDS011;65471;55.908;37.880;2023-01-29T03:48:52;9.70;;;6.20;;
76589;SDS011;65471;55.908;37.880;2023-01-29T03:51:36;7.65;;;5.97;;
76589;SDS011;65471;55.908;37.880;2023-01-29T03:54:30;11.18;;;9.63;;
76589;SDS011;65471;55.908;37.880;2023-01-29T03:57:03;7.25;;;6.63;;
76589;SDS011;65471;55.908;37.880;2023-01-29T04:03:16;11.43;;;8.43;;
76589;SDS011;65471;55.908;37.880;2023-01-29T04:06:17;9.88;;;8.25;;
76589;SDS011;65471;55.908;37.880;2023-01-29T04:08:57;7.68;;;7.00;;
76589;SDS011;65471;55.908;37.880;2023-01-29T04:11:31;7.10;;;5.18;;
76589;SDS011;65471;55.908;37.880;2023-01-29T04:14:03;8.57;;;5.55;;
76589;SDS011;65471;55.908;37.880;2023-01-29T04:16:34;6.50;;;5.38;;
76589;SDS011;65471;55.908;37.880;2023-01-29T04:19:05;6.55;;;4.40;;
76589;SDS011;65471;55.908;37.880;2023-01-29T04:21:33;4.43;;;3.88;;
76589;SDS011;65471;55.908;37.880;2023-01-29T04:24:03;4.38;;;4.00;;
76589;SDS011;65471;55.908;37.880;2023-01-29T04:26:36;5.47;;;4.32;;
76589;SDS011;65471;55.908;37.880;2023-01-29T04:37:48;5.32;;;4.10;;
76589;SDS011;65471;55.908;37.880;2023-01-29T04:54:11;3.50;;;3.30;;
76589;SDS011;65471;55.908;37.880;2023-01-29T04:56:47;3.30;;;3.08;;
76589;SDS011;65471;55.908;37.880;2023-01-29T04:59:37;3.53;;;3.22;;
76589;SDS011;65471;55.908;37.880;2023-01-29T05:02:08;3.58;;;3.28;;
76589;SDS011;65471;55.908;37.880;2023-01-29T05:04:37;3.53;;;3.17;;
76589;SDS011;65471;55.908;37.880;2023-01-29T05:07:07;3.45;;;3.25;;
76589;SDS011;65471;55.908;37.880;2023-01-29T05:09:37;3.20;;;2.90;;
76589;SDS011;65471;55.908;37.880;2023-01-29T05:12:06;4.18;;;2.90;;
76589;SDS011;65471;55.908;37.880;2023-01-29T05:14:36;4.43;;;3.33;;
76589;SDS011;65471;55.908;37.880;2023-01-29T05:17:08;3.53;;;3.10;;
76589;SDS011;65471;55.908;37.880;2023-01-29T05:19:40;3.03;;;2.83;;
76589;SDS011;65471;55.908;37.880;2023-01-29T05:22:08;3.10;;;2.90;;
76589;SDS011;65471;55.908;37.880;2023-01-29T05:24:37;3.95;;;3.08;;
76589;SDS011;65471;55.908;37.880;2023-01-29T05:27:04;3.17;;;2.88;;
76589;SDS011;65471;55.908;37.880;2023-01-29T05:29:49;3.45;;;3.25;;
76589;SDS011;65471;55.908;37.880;2023-01-29T05:32:16;6.32;;;3.33;;
76589;SDS011;65471;55.908;37.880;2023-01-29T05:34:43;3.10;;;2.92;;
76589;SDS011;65471;55.908;37.880;2023-01-29T05:37:10;3.15;;;2.85;;
76589;SDS011;65471;55.908;37.880;2023-01-29T05:39:36;3.10;;;2.90;;
76589;SDS011;65471;55.908;37.880;2023-01-29T05:42:03;3.28;;;3.08;;
76589;SDS011;65471;55.908;37.880;2023-01-29T05:44:33;3.22;;;3.03;;
76589;SDS011;65471;55.908;37.880;2023-01-29T05:47:00;3.20;;;3.03;;
76589;SDS011;65471;55.908;37.880;2023-01-29T05:49:28;2.95;;;2.75;;
76589;SDS011;65471;55.908;37.880;2023-01-29T05:51:55;5.07;;;3.00;;
76589;SDS011;65471;55.908;37.880;2023-01-29T05:54:22;2.80;;;2.70;;
76589;SDS011;65471;55.908;37.880;2023-01-29T05:56:48;3.70;;;3.08;;
76589;SDS011;65471;55.908;37.880;2023-01-29T05:59:15;3.17;;;2.97;;
76589;SDS011;65471;55.908;37.880;2023-01-29T06:01:42;2.90;;;2.70;;
76589;SDS011;65471;55.908;37.880;2023-01-29T06:04:09;3.45;;;3.15;;
76589;SDS011;65471;55.908;37.880;2023-01-29T06:06:35;3.47;;;3.08;;
76589;SDS011;65471;55.908;37.880;2023-01-29T06:09:02;3.47;;;3.17;;
76589;SDS011;65471;55.908;37.880;2023-01-29T06:11:29;3.22;;;2.75;;
76589;SDS011;65471;55.908;37.880;2023-01-29T06:13:56;3.20;;;3.00;;
76589;SDS011;65471;55.908;37.880;2023-01-29T06:16:25;3.95;;;3.53;;
76589;SDS011;65471;55.908;37.880;2023-01-29T06:18:52;3.47;;;3.15;;
76589;SDS011;65471;55.908;37.880;2023-01-29T06:21:19;3.95;;;2.97;;
76589;SDS011;65471;55.908;37.880;2023-01-29T06:24:10;3.20;;;3.00;;
76589;SDS011;65471;55.908;37.880;2023-01-29T06:26:37;3.10;;;2.90;;
76589;SDS011;65471;55.908;37.880;2023-01-29T06:29:04;3.70;;;3.10;;
76589;SDS011;65471;55.908;37.880;2023-01-29T06:31:31;3.25;;;3.03;;
76589;SDS011;65471;55.908;37.880;2023-01-29T06:34:04;3.45;;;3.15;;
76589;SDS011;65471;55.908;37.880;2023-01-29T06:36:32;3.13;;;2.93;;
76589;SDS011;65471;55.908;37.880;2023-01-29T06:38:59;3.30;;;2.92;;
76589;SDS011;65471;55.908;37.880;2023-01-29T06:41:26;3.70;;;2.42;;
76589;SDS011;65471;55.908;37.880;2023-01-29T06:43:55;2.55;;;2.35;;
76589;SDS011;65471;55.908;37.880;2023-01-29T06:46:21;3.22;;;3.00;;
76589;SDS011;65471;55.908;37.880;2023-01-29T06:48:48;2.67;;;2.58;;
76589;SDS011;65471;55.908;37.880;2023-01-29T06:51:15;2.78;;;2.58;;
76589;SDS011;65471;55.908;37.880;2023-01-29T06:53:42;3.42;;;3.13;;
76589;SDS011;65471;55.908;37.880;2023-01-29T06:56:11;3.53;;;3.28;;
76589;SDS011;65471;55.908;37.880;2023-01-29T06:58:38;3.75;;;3.38;;
76589;SDS011;65471;55.908;37.880;2023-01-29T07:01:07;5.97;;;4.30;;
76589;SDS011;65471;55.908;37.880;2023-01-29T07:03:35;9.27;;;6.50;;
76589;SDS011;65471;55.908;37.880;2023-01-29T07:06:05;7.22;;;4.50;;
76589;SDS011;65471;55.908;37.880;2023-01-29T07:08:37;7.72;;;3.75;;
76589;SDS011;65471;55.908;37.880;2023-01-29T07:11:04;3.85;;;3.50;;
76589;SDS011;65471;55.908;37.880;2023-01-29T07:13:34;3.85;;;3.42;;
76589;SDS011;65471;55.908;37.880;2023-01-29T07:16:15;4.05;;;2.75;;
76589;SDS011;65471;55.908;37.880;2023-01-29T07:18:42;3.47;;;3.22;;
76589;SDS011;65471;55.908;37.880;2023-01-29T07:21:11;4.00;;;3.70;;
76589;SDS011;65471;55.908;37.880;2023-01-29T07:23:38;3.40;;;3.20;;
76589;SDS011;65471;55.908;37.880;2023-01-29T07:26:05;3.83;;;3.53;;
76589;SDS011;65471;55.908;37.880;2023-01-29T07:28:36;10.07;;;3.20;;
76589;SDS011;65471;55.908;37.880;2023-01-29T07:31:03;3.97;;;3.38;;
76589;SDS011;65471;55.908;37.880;2023-01-29T07:33:31;3.10;;;2.90;;
76589;SDS011;65471;55.908;37.880;2023-01-29T07:35:58;5.53;;;3.03;;
76589;SDS011;65471;55.908;37.880;2023-01-29T07:38:25;4.97;;;3.28;;
76589;SDS011;65471;55.908;37.880;2023-01-29T07:43:21;3.42;;;3.13;;
76589;SDS011;65471;55.908;37.880;2023-01-29T07:48:17;3.80;;;3.53;;
76589;SDS011;65471;55.908;37.880;2023-01-29T07:50:53;3.63;;;3.38;;
76589;SDS011;65471;55.908;37.880;2023-01-29T07:53:20;3.40;;;3.10;;
76589;SDS011;65471;55.908;37.880;2023-01-29T07:55:47;3.88;;;3.28;;
76589;SDS011;65471;55.908;37.880;2023-01-29T07:58:14;3.83;;;3.53;;
76589;SDS011;65471;55.908;37.880;2023-01-29T08:00:40;2.70;;;2.60;;
76589;SDS011;65471;55.908;37.880;2023-01-29T08:03:12;3.20;;;3.00;;
76589;SDS011;65471;55.908;37.880;2023-01-29T08:05:42;5.40;;;3.30;;
76589;SDS011;65471;55.908;37.880;2023-01-29T08:08:09;4.03;;;2.93;;
76589;SDS011;65471;55.908;37.880;2023-01-29T08:10:49;6.22;;;2.60;;
76589;SDS011;65471;55.908;37.880;2023-01-29T08:13:16;3.08;;;2.88;;
76589;SDS011;65471;55.908;37.880;2023-01-29T08:15:43;2.67;;;2.47;;
76589;SDS011;65471;55.908;37.880;2023-01-29T08:18:13;2.92;;;2.55;;
76589;SDS011;65471;55.908;37.880;2023-01-29T08:20:40;2.63;;;2.42;;
76589;SDS011;65471;55.908;37.880;2023-01-29T08:23:09;2.63;;;2.42;;
76589;SDS011;65471;55.908;37.880;2023-01-29T08:25:39;2.28;;;2.17;;
76589;SDS011;65471;55.908;37.880;2023-01-29T08:28:06;5.28;;;2.40;;
76589;SDS011;65471;55.908;37.880;2023-01-29T08:30:33;2.55;;;2.45;;
76589;SDS011;65471;55.908;37.880;2023-01-29T08:33:01;2.10;;;1.90;;
76589;SDS011;65471;55.908;37.880;2023-01-29T08:35:29;2.15;;;2.03;;
76589;SDS011;65471;55.908;37.880;2023-01-29T08:37:57;2.15;;;2.05;;
76589;SDS011;65471;55.908;37.880;2023-01-29T08:40:26;2.38;;;2.28;;
76589;SDS011;65471;55.908;37.880;2023-01-29T08:42:57;2.70;;;2.13;;
76589;SDS011;65471;55.908;37.880;2023-01-29T08:48:06;1.88;;;1.77;;
76589;SDS011;65471;55.908;37.880;2023-01-29T08:50:34;2.63;;;2.40;;
76589;SDS011;65471;55.908;37.880;2023-01-29T08:53:04;2.00;;;1.90;;
76589;SDS011;65471;55.908;37.880;2023-01-29T08:55:37;2.60;;;2.50;;
76589;SDS011;65471;55.908;37.880;2023-01-29T08:58:05;2.35;;;2.22;;
76589;SDS011;65471;55.908;37.880;2023-01-29T09:00:35;2.38;;;2.17;;
76589;SDS011;65471;55.908;37.880;2023-01-29T09:03:02;2.70;;;2.50;;
76589;SDS011;65471;55.908;37.880;2023-01-29T09:05:29;3.30;;;3.10;;
76589;SDS011;65471;55.908;37.880;2023-01-29T09:07:56;2.35;;;2.20;;
76589;SDS011;65471;55.908;37.880;2023-01-29T09:10:23;4.60;;;3.25;;
76589;SDS011;65471;55.908;37.880;2023-01-29T09:12:52;2.80;;;2.42;;
76589;SDS011;65471;55.908;37.880;2023-01-29T09:15:19;2.78;;;2.58;;
76589;SDS011;65471;55.908;37.880;2023-01-29T09:17:46;4.45;;;2.13;;
76589;SDS011;65471;55.908;37.880;2023-01-29T09:20:14;2.65;;;2.45;;
76589;SDS011;65471;55.908;37.880;2023-01-29T09:22:46;5.72;;;3.22;;
76589;SDS011;65471;55.908;37.880;2023-01-29T09:25:14;2.33;;;2.22;;
76589;SDS011;65471;55.908;37.880;2023-01-29T09:27:41;2.17;;;2.08;;
76589;SDS011;65471;55.908;37.880;2023-01-29T09:30:08;5.03;;;2.50;;
76589;SDS011;65471;55.908;37.880;2023-01-29T09:32:36;5.05;;;2.05;;
76589;SDS011;65471;55.908;37.880;2023-01-29T09:35:19;2.63;;;2.42;;
76589;SDS011;65471;55.908;37.880;2023-01-29T09:37:49;5.18;;;2.60;;
76589;SDS011;65471;55.908;37.880;2023-01-29T09:40:28;3.53;;;2.42;;
76589;SDS011;65471;55.908;37.880;2023-01-29T09:43:06;4.78;;;2.20;;
76589;SDS011;65471;55.908;37.880;2023-01-29T09:45:42;1.38;;;1.38;;
76589;SDS011;65471;55.908;37.880;2023-01-29T09:48:31;2.35;;;2.22;;
76589;SDS011;65471;55.908;37.880;2023-01-29T09:51:02;2.47;;;2.38;;
76589;SDS011;65471;55.908;37.880;2023-01-29T09:53:37;2.40;;;2.30;;
76589;SDS011;65471;55.908;37.880;2023-01-29T09:56:13;4.53;;;2.28;;
76589;SDS011;65471;55.908;37.880;2023-01-29T09:58:46;9.68;;;2.63;;
76589;SDS011;65471;55.908;37.880;2023-01-29T10:11:48;2.50;;;2.40;;
76589;SDS011;65471;55.908;37.880;2023-01-29T10:14:22;4.57;;;2.92;;
76589;SDS011;65471;55.908;37.880;2023-01-29T10:17:08;4.55;;;2.00;;
76589;SDS011;65471;55.908;37.880;2023-01-29T10:20:02;4.40;;;2.55;;
76589;SDS011;65471;55.908;37.880;2023-01-29T10:25:44;5.97;;;2.90;;
76589;SDS011;65471;55.908;37.880;2023-01-29T10:31:18;3.80;;;3.13;;
76589;SDS011;65471;55.908;37.880;2023-01-29T10:34:06;2.67;;;2.47;;
76589;SDS011;65471;55.908;37.880;2023-01-29T10:36:41;3.05;;;2.85;;
76589;SDS011;65471;55.908;37.880;2023-01-29T10:39:17;2.97;;;2.78;;
76589;SDS011;65471;55.908;37.880;2023-01-29T10:53:00;3.33;;;3.00;;
76589;SDS011;65471;55.908;37.880;2023-01-29T10:58:42;3.03;;;2.83;;
76589;SDS011;65471;55.908;37.880;2023-01-29T11:01:15;3.42;;;3.10;;
76589;SDS011;65471;55.908;37.880;2023-01-29T11:03:42;2.47;;;2.22;;
76589;SDS011;65471;55.908;37.880;2023-01-29T11:06:17;3.67;;;3.47;;
76589;SDS011;65471;55.908;37.880;2023-01-29T11:11:18;3.30;;;3.05;;
76589;SDS011;65471;55.908;37.880;2023-01-29T11:13:49;3.33;;;3.03;;
76589;SDS011;65471;55.908;37.880;2023-01-29T11:16:21;3.55;;;2.63;;
76589;SDS011;65471;55.908;37.880;2023-01-29T11:21:24;3.40;;;2.80;;
76589;SDS011;65471;55.908;37.880;2023-01-29T11:24:30;2.90;;;2.38;;
76589;SDS011;65471;55.908;37.880;2023-01-29T11:26:50;2.45;;;2.35;;
76589;SDS011;65471;55.908;37.880;2023-01-29T11:31:55;1.70;;;1.70;;
76589;SDS011;65471;55.908;37.880;2023-01-29T11:34:23;2.35;;;2.15;;
76589;SDS011;65471;55.908;37.880;2023-01-29T11:36:56;5.28;;;1.80;;
76589;SDS011;65471;55.908;37.880;2023-01-29T11:39:30;2.20;;;2.10;;
76589;SDS011;65471;55.908;37.880;2023-01-29T11:41:58;2.90;;;2.63;;
76589;SDS011;65471;55.908;37.880;2023-01-29T11:44:33;2.47;;;2.30;;
76589;SDS011;65471;55.908;37.880;2023-01-29T11:49:52;2.70;;;2.55;;
76589;SDS011;65471;55.908;37.880;2023-01-29T11:52:22;2.50;;;2.40;;
76589;SDS011;65471;55.908;37.880;2023-01-29T11:55:00;1.88;;;1.77;;
76589;SDS011;65471;55.908;37.880;2023-01-29T11:57:42;2.38;;;2.15;;
76589;SDS011;65471;55.908;37.880;2023-01-29T12:00:19;2.33;;;2.22;;
76589;SDS011;65471;55.908;37.880;2023-01-29T12:02:53;5.45;;;3.00;;
76589;SDS011;65471;55.908;37.880;2023-01-29T12:05:36;2.38;;;2.28;;
76589;SDS011;65471;55.908;37.880;2023-01-29T12:08:13;2.97;;;2.78;;
76589;SDS011;65471;55.908;37.880;2023-01-29T12:10:45;2.75;;;2.58;;
76589;SDS011;65471;55.908;37.880;2023-01-29T12:13:20;2.58;;;2.38;;
76589;SDS011;65471;55.908;37.880;2023-01-29T12:16:04;2.88;;;2.67;;
76589;SDS011;65471;55.908;37.880;2023-01-29T12:21:46;1.92;;;1.83;;
76589;SDS011;65471;55.908;37.880;2023-01-29T12:29:59;2.72;;;2.63;;
76589;SDS011;65471;55.908;37.880;2023-01-29T12:32:54;2.90;;;2.65;;
76589;SDS011;65471;55.908;37.880;2023-01-29T12:35:30;3.30;;;3.10;;
76589;SDS011;65471;55.908;37.880;2023-01-29T12:38:02;3.22;;;3.03;;
76589;SDS011;65471;55.908;37.880;2023-01-29T12:43:47;3.63;;;3.33;;
76589;SDS011;65471;55.908;37.880;2023-01-29T12:46:20;3.30;;;3.10;;
76589;SDS011;65471;55.908;37.880;2023-01-29T12:48:50;3.38;;;3.17;;
76589;SDS011;65471;55.908;37.880;2023-01-29T12:51:45;3.50;;;3.20;;
76589;SDS011;65471;55.908;37.880;2023-01-29T12:54:26;3.25;;;3.03;;
76589;SDS011;65471;55.908;37.880;2023-01-29T12:57:31;3.30;;;3.10;;
76589;SDS011;65471;55.908;37.880;2023-01-29T13:00:03;3.20;;;3.00;;
76589;SDS011;65471;55.908;37.880;2023-01-29T13:02:36;2.88;;;2.78;;
76589;SDS011;65471;55.908;37.880;2023-01-29T13:07:45;3.20;;;3.00;;
76589;SDS011;65471;55.908;37.880;2023-01-29T13:10:17;3.90;;;3.38;;
76589;SDS011;65471;55.908;37.880;2023-01-29T13:13:33;3.05;;;2.95;;
76589;SDS011;65471;55.908;37.880;2023-01-29T13:15:48;3.63;;;3.42;;
76589;SDS011;65471;55.908;37.880;2023-01-29T13:21:03;3.13;;;2.92;;
76589;SDS011;65471;55.908;37.880;2023-01-29T13:23:35;3.60;;;3.28;;
76589;SDS011;65471;55.908;37.880;2023-01-29T13:26:05;3.30;;;3.00;;
76589;SDS011;65471;55.908;37.880;2023-01-29T13:28:32;3.58;;;3.28;;
76589;SDS011;65471;55.908;37.880;2023-01-29T13:31:08;3.60;;;3.40;;
76589;SDS011;65471;55.908;37.880;2023-01-29T13:33:39;3.88;;;3.67;;
76589;SDS011;65471;55.908;37.880;2023-01-29T13:36:15;6.95;;;3.47;;
76589;SDS011;65471;55.908;37.880;2023-01-29T13:38:47;3.70;;;3.40;;
76589;SDS011;65471;55.908;37.880;2023-01-29T13:41:32;3.75;;;3.45;;
76589;SDS011;65471;55.908;37.880;2023-01-29T13:44:04;3.97;;;3.67;;
76589;SDS011;65471;55.908;37.880;2023-01-29T13:46:38;4.05;;;3.60;;
76589;SDS011;65471;55.908;37.880;2023-01-29T13:49:16;4.18;;;3.88;;
76589;SDS011;65471;55.908;37.880;2023-01-29T13:51:50;3.83;;;3.45;;
76589;SDS011;65471;55.908;37.880;2023-01-29T13:54:17;4.13;;;3.13;;
76589;SDS011;65471;55.908;37.880;2023-01-29T13:56:59;4.65;;;4.25;;
76589;SDS011;65471;55.908;37.880;2023-01-29T14:04:46;3.75;;;3.53;;
76589;SDS011;65471;55.908;37.880;2023-01-29T14:10:16;3.90;;;3.60;;
76589;SDS011;65471;55.908;37.880;2023-01-29T14:12:48;3.78;;;3.47;;
76589;SDS011;65471;55.908;37.880;2023-01-29T14:15:20;4.15;;;3.75;;
76589;SDS011;65471;55.908;37.880;2023-01-29T14:18:02;3.92;;;3.17;;
76589;SDS011;65471;55.908;37.880;2023-01-29T14:20:49;3.88;;;3.50;;
76589;SDS011;65471;55.908;37.880;2023-01-29T14:26:23;3.65;;;3.35;;
76589;SDS011;65471;55.908;37.880;2023-01-29T14:31:42;4.40;;;4.00;;
76589;SDS011;65471;55.908;37.880;2023-01-29T14:34:17;5.80;;;3.63;;
76589;SDS011;65471;55.908;37.880;2023-01-29T14:36:46;3.80;;;3.60;;
76589;SDS011;65471;55.908;37.880;2023-01-29T14:42:15;3.90;;;3.60;;
76589;SDS011;65471;55.908;37.880;2023-01-29T14:49:54;4.30;;;3.90;;
76589;SDS011;65471;55.908;37.880;2023-01-29T14:52:46;7.95;;;3.90;;
76589;SDS011;65471;55.908;37.880;2023-01-29T14:55:14;4.28;;;3.97;;
76589;SDS011;65471;55.908;37.880;2023-01-29T14:57:56;9.18;;;4.07;;
76589;SDS011;65471;55.908;37.880;2023-01-29T15:00:31;5.67;;;4.20;;
76589;SDS011;65471;55.908;37.880;2023-01-29T15:03:03;4.60;;;4.20;;
76589;SDS011;65471;55.908;37.880;2023-01-29T15:05:48;3.70;;;3.40;;
76589;SDS011;65471;55.908;37.880;2023-01-29T15:10:59;4.50;;;4.20;;
76589;SDS011;65471;55.908;37.880;2023-01-29T15:22:00;6.35;;;4.40;;
76589;SDS011;65471;55.908;37.880;2023-01-29T15:24:31;4.18;;;3.83;;
76589;SDS011;65471;55.908;37.880;2023-01-29T15:27:15;7.78;;;4.18;;
76589;SDS011;65471;55.908;37.880;2023-01-29T15:29:54;4.72;;;4.32;;
76589;SDS011;65471;55.908;37.880;2023-01-29T15:32:25;4.55;;;4.20;;
76589;SDS011;65471;55.908;37.880;2023-01-29T15:34:55;4.85;;;4.38;;
76589;SDS011;65471;55.908;37.880;2023-01-29T15:37:27;5.32;;;4.93;;
76589;SDS011;65471;55.908;37.880;2023-01-29T15:39:56;4.60;;;4.22;;
76589;SDS011;65471;55.908;37.880;2023-01-29T15:42:25;4.93;;;4.47;;
76589;SDS011;65471;55.908;37.880;2023-01-29T15:45:22;3.40;;;3.20;;
76589;SDS011;65471;55.908;37.880;2023-01-29T15:50:38;7.40;;;4.32;;
76589;SDS011;65471;55.908;37.880;2023-01-29T15:53:08;10.63;;;5.32;;
76589;SDS011;65471;55.908;37.880;2023-01-29T15:55:41;5.72;;;4.80;;
76589;SDS011;65471;55.908;37.880;2023-01-29T15:58:28;5.40;;;4.90;;
76589;SDS011;65471;55.908;37.880;2023-01-29T16:00:57;8.50;;;5.55;;
76589;SDS011;65471;55.908;37.880;2023-01-29T16:03:27;9.93;;;5.85;;
76589;SDS011;65471;55.908;37.880;2023-01-29T16:05:59;9.95;;;4.97;;
76589;SDS011;65471;55.908;37.880;2023-01-29T16:08:26;7.63;;;5.78;;
76589;SDS011;65471;55.908;37.880;2023-01-29T16:10:54;8.30;;;6.10;;
76589;SDS011;65471;55.908;37.880;2023-01-29T16:13:33;6.88;;;6.20;;
76589;SDS011;65471;55.908;37.880;2023-01-29T16:16:03;6.80;;;5.38;;
76589;SDS011;65471;55.908;37.880;2023-01-29T16:18:42;9.13;;;6.30;;
76589;SDS011;65471;55.908;37.880;2023-01-29T16:21:31;7.95;;;6.18;;
76589;SDS011;65471;55.908;37.880;2023-01-29T16:26:41;7.15;;;5.63;;
76589;SDS011;65471;55.908;37.880;2023-01-29T16:29:14;6.03;;;5.20;;
76589;SDS011;65471;55.908;37.880;2023-01-29T16:31:44;6.10;;;5.40;;
76589;SDS011;65471;55.908;37.880;2023-01-29T16:37:27;11.07;;;6.45;;
76589;SDS011;65471;55.908;37.880;2023-01-29T16:39:56;8.07;;;5.65;;
76589;SDS011;65471;55.908;37.880;2023-01-29T16:42:27;13.52;;;6.55;;
76589;SDS011;65471;55.908;37.880;2023-01-29T16:47:37;9.73;;;7.03;;
76589;SDS011;65471;55.908;37.880;2023-01-29T16:53:20;6.45;;;5.85;;
76589;SDS011;65471;55.908;37.880;2023-01-29T16:55:49;7.45;;;5.95;;
76589;SDS011;65471;55.908;37.880;2023-01-29T16:58:18;8.18;;;5.82;;
76589;SDS011;65471;55.908;37.880;2023-01-29T17:00:49;10.70;;;6.93;;
76589;SDS011;65471;55.908;37.880;2023-01-29T17:03:30;15.07;;;6.88;;
76589;SDS011;65471;55.908;37.880;2023-01-29T17:06:12;9.23;;;6.03;;
76589;SDS011;65471;55.908;37.880;2023-01-29T17:08:45;8.02;;;6.32;;
76589;SDS011;65471;55.908;37.880;2023-01-29T17:11:13;9.68;;;7.47;;
76589;SDS011;65471;55.908;37.880;2023-01-29T17:13:51;16.50;;;10.43;;
76589;SDS011;65471;55.908;37.880;2023-01-29T17:16:23;12.70;;;8.00;;
76589;SDS011;65471;55.908;37.880;2023-01-29T17:18:51;11.80;;;8.15;;
76589;SDS011;65471;55.908;37.880;2023-01-29T17:21:18;15.05;;;6.43;;
76589;SDS011;65471;55.908;37.880;2023-01-29T17:23:45;13.35;;;8.07;;
76589;SDS011;65471;55.908;37.880;2023-01-29T17:26:12;17.05;;;8.68;;
76589;SDS011;65471;55.908;37.880;2023-01-29T17:28:40;13.15;;;6.88;;
76589;SDS011;65471;55.908;37.880;2023-01-29T17:31:07;23.67;;;7.40;;
76589;SDS011;65471;55.908;37.880;2023-01-29T17:33:36;12.88;;;8.05;;
76589;SDS011;65471;55.908;37.880;2023-01-29T17:36:10;9.23;;;7.43;;
76589;SDS011;65471;55.908;37.880;2023-01-29T17:38:39;6.72;;;6.10;;
76589;SDS011;65471;55.908;37.880;2023-01-29T17:43:51;12.23;;;6.50;;
76589;SDS011;65471;55.908;37.880;2023-01-29T17:46:18;7.78;;;6.80;;
76589;SDS011;65471;55.908;37.880;2023-01-29T17:48:45;11.27;;;6.85;;
76589;SDS011;65471;55.908;37.880;2023-01-29T17:53:42;12.13;;;6.43;;